Time;durP1;ratioP1;P1;durP2;ratioP2;P2;SDS_P1;SDS_P2;PMS_P1;PMS_P2;Temp;Humidity;BMP_temperature;BMP_pressure;BME280_temperature;BME280_humidity;BME280_pressure;Samples;Min_cycle;Max_cycle;Signal;HPM_P1;HPM_P2
2022/07/12 09:51:54;;;;;;;1.15;0.60;;;30.20;74.20;;;-144.05;30.61;125687.94;6163054;23;20058;-89
2022/07/12 09:54:27;;;;;;;2.42;0.73;;;30.00;71.00;;;-144.05;31.26;125687.94;6105647;23;20053;-89
2022/07/12 09:57:03;;;;;;;3.30;0.93;;;30.30;73.60;;;-144.05;30.80;125687.94;6106245;23;20034;-89
2022/07/12 09:59:35;;;;;;;2.58;0.77;;;30.40;70.80;;;-144.05;30.52;125687.94;6106763;23;20006;-89
2022/07/12 10:02:15;;;;;;;3.25;0.60;;;30.50;70.80;;;-144.05;30.66;125687.94;6106115;23;20044;-88
2022/07/12 10:04:42;;;;;;;3.95;0.52;;;30.30;69.80;;;-144.05;31.12;125687.94;6132834;23;20014;-89
2022/07/12 10:07:13;;;;;;;2.25;0.70;;;29.90;69.40;;;-144.05;30.88;125687.94;6136552;23;20010;-88
2022/07/12 10:09:42;;;;;;;1.45;0.45;;;29.60;68.60;;;-144.05;31.02;125687.94;6137322;23;20033;-89
2022/07/12 10:12:13;;;;;;;1.35;0.50;;;29.50;69.50;;;-144.05;31.30;125687.94;6135385;23;20037;-88
2022/07/12 10:14:43;;;;;;;2.83;0.60;;;29.70;69.90;;;-144.05;31.01;125687.94;6132396;23;20125;-86
2022/07/12 10:17:13;;;;;;;2.25;0.80;;;30.20;70.70;;;-144.05;30.84;125687.94;6130821;23;20033;-87
2022/07/12 10:19:40;;;;;;;1.52;0.77;;;30.10;69.40;;;-144.05;31.18;125687.94;6131119;23;20020;-88
2022/07/12 10:22:20;;;;;;;1.75;0.60;;;29.80;70.60;;;-144.05;31.38;125687.94;6131220;23;20029;-88
2022/07/12 10:24:52;;;;;;;1.85;0.32;;;29.50;68.70;;;-144.05;30.50;125687.94;6131900;23;20006;-86
2022/07/12 10:27:19;;;;;;;2.55;0.50;;;29.50;66.80;;;-144.05;30.79;125687.94;6131240;23;20006;-88
2022/07/12 10:29:52;;;;;;;1.10;0.50;;;29.80;69.40;;;-144.05;30.41;125687.94;6105720;23;20055;-88
2022/07/12 10:32:53;;;;;;;1.40;0.73;;;30.20;67.60;;;-144.05;30.30;125687.94;6107070;23;20002;-89
2022/07/12 10:35:31;;;;;;;1.13;0.80;;;30.30;67.50;;;-144.05;30.73;125687.94;6121065;23;20010;-86
2022/07/12 10:38:12;;;;;;;1.77;0.60;;;30.40;68.00;;;-144.05;29.98;125687.94;6131755;23;20017;-86
2022/07/12 10:40:44;;;;;;;0.57;0.57;;;30.30;64.50;;;-144.05;30.80;125687.94;6109806;23;20040;-89
2022/07/12 10:43:11;;;;;;;2.45;0.80;;;30.60;67.40;;;-144.05;29.92;125687.94;6133091;23;20014;-87
2022/07/12 10:45:47;;;;;;;2.60;0.80;;;30.60;65.30;;;-144.05;29.62;125687.94;6110599;23;20014;-89
2022/07/12 10:48:16;;;;;;;3.63;0.80;;;30.50;63.60;;;-144.05;29.84;125687.94;6109578;23;20017;-87
2022/07/12 10:50:45;;;;;;;2.25;0.60;;;30.80;64.80;;;-144.05;28.96;125687.94;6109180;23;20033;-88
2022/07/12 10:53:44;;;;;;;2.42;0.88;;;31.10;62.00;;;-144.05;29.05;125687.94;6108354;23;20017;-89
2022/07/12 10:56:19;;;;;;;1.88;0.50;;;30.90;60.50;;;-144.05;29.10;125687.94;6132408;23;20010;-88
2022/07/12 10:58:58;;;;;;;1.25;0.50;;;30.70;60.90;;;-144.05;29.43;125687.94;6132584;23;20014;-87
2022/07/12 11:01:30;;;;;;;3.50;0.70;;;30.40;61.80;;;-144.05;30.02;125687.94;6135677;23;20014;-86
2022/07/12 11:04:16;;;;;;;1.02;0.70;;;30.50;64.50;;;-144.05;30.00;125687.94;6133063;23;20010;-90
2022/07/12 11:06:42;;;;;;;3.75;0.70;;;30.70;63.90;;;-144.05;29.70;125687.94;6132337;23;20010;-87
2022/07/12 11:09:17;;;;;;;3.33;0.82;;;30.70;63.10;;;-144.05;30.68;125687.94;6133122;23;20187;-90
2022/07/12 11:11:50;;;;;;;0.70;0.50;;;30.50;64.80;;;-144.05;30.14;125687.94;6132589;23;20344;-89
2022/07/12 11:14:32;;;;;;;3.03;0.82;;;30.30;62.80;;;-144.05;30.35;125687.94;6132547;23;20242;-87
2022/07/12 11:16:59;;;;;;;1.45;0.70;;;30.30;64.10;;;-144.05;30.47;125687.94;6133464;23;20072;-88
2022/07/12 11:19:29;;;;;;;1.30;0.63;;;30.30;63.60;;;-144.05;29.54;125687.94;6133131;23;20006;-87
2022/07/12 11:21:58;;;;;;;1.40;0.60;;;30.30;61.70;;;-144.05;29.39;125687.94;6133030;23;20013;-88
2022/07/12 11:24:27;;;;;;;2.03;0.50;;;30.50;60.30;;;-144.05;29.43;125687.94;6133163;23;20161;-88
2022/07/12 11:26:53;;;;;;;2.38;0.70;;;30.50;61.50;;;-144.05;29.12;125687.94;6108937;23;20012;-89
2022/07/12 11:29:21;;;;;;;1.73;0.57;;;30.60;60.30;;;-144.05;28.08;125687.94;6109694;23;20009;-88
2022/07/12 11:31:47;;;;;;;0.88;0.50;;;30.80;58.40;;;-144.05;29.29;125687.94;6139067;23;20001;-89
2022/07/12 11:34:26;;;;;;;2.15;0.55;;;30.80;61.10;;;-144.05;30.02;125687.94;6152249;23;20018;-89
2022/07/12 11:37:01;;;;;;;1.42;0.68;;;30.80;62.90;;;-144.05;29.46;125687.94;6108747;23;20034;-90
2022/07/12 11:39:37;;;;;;;1.75;0.65;;;30.70;62.50;;;-144.05;28.77;125687.94;6133838;23;20049;-90
2022/07/12 11:42:13;;;;;;;1.75;0.60;;;30.80;60.00;;;-144.05;28.87;125687.94;6133682;23;20034;-91
2022/07/12 11:44:55;;;;;;;;;;;31.00;59.00;;;-144.05;28.05;125687.94;6135031;23;20466;-90
2022/07/12 11:47:26;;;;;;;3.40;0.73;;;31.30;58.00;;;-144.05;27.85;125687.94;6137088;23;20349;-92
2022/07/12 11:49:55;;;;;;;1.42;0.50;;;31.30;56.60;;;-144.05;27.87;125687.94;6115267;23;20014;-89
2022/07/12 11:52:24;;;;;;;2.63;0.60;;;31.50;57.00;;;-144.05;28.02;125687.94;6108707;23;20013;-89
2022/07/12 11:54:54;;;;;;;3.45;0.70;;;31.50;57.10;;;-144.05;27.96;125687.94;6107935;23;20010;-90
2022/07/12 11:57:23;;;;;;;2.15;0.68;;;31.60;56.80;;;-144.05;27.39;125687.94;6132331;23;20405;-88
2022/07/12 11:59:49;;;;;;;0.77;0.35;;;31.60;55.50;;;-144.05;27.87;125687.94;6132286;23;20010;-88
2022/07/12 12:02:17;;;;;;;0.80;0.47;;;31.60;56.70;;;-144.05;28.14;125687.94;6107033;23;20006;-86
2022/07/12 12:04:55;;;;;;;1.17;0.45;;;31.50;56.60;;;-144.05;29.18;125687.94;6107252;23;20032;-88
2022/07/12 12:07:24;;;;;;;0.98;0.50;;;31.30;58.60;;;-144.05;27.96;125687.94;6132331;23;20010;-89
2022/07/12 12:10:14;;;;;;;2.15;0.40;;;31.30;56.60;;;-144.05;28.33;125687.94;6131449;23;20013;-90
2022/07/12 12:12:56;;;;;;;2.15;0.40;;;31.30;56.40;;;-144.05;28.55;125687.94;6131705;23;20020;-90
2022/07/12 12:15:26;;;;;;;1.30;0.50;;;31.50;57.60;;;-144.05;27.44;125687.94;6132917;23;20014;-89
2022/07/12 12:18:02;;;;;;;1.25;0.60;;;31.90;55.60;;;-144.05;27.37;125687.94;6133980;23;20010;-88
2022/07/12 12:20:33;;;;;;;2.30;0.50;;;32.10;56.00;;;-144.05;27.39;125687.94;6136365;23;20069;-88
2022/07/12 12:23:05;;;;;;;0.77;0.50;;;31.70;54.40;;;-144.05;27.75;125687.94;6113359;23;20289;-87
2022/07/12 12:25:33;;;;;;;0.90;0.40;;;31.50;55.40;;;-144.05;28.47;125687.94;6106315;23;20010;-91
2022/07/12 12:28:08;;;;;;;1.25;0.60;;;31.20;57.20;;;-144.05;28.27;125687.94;6131258;23;20117;-90
2022/07/12 12:30:53;;;;;;;1.80;0.40;;;31.40;56.20;;;-144.05;27.63;125687.94;6131410;23;20145;-89
2022/07/12 12:33:49;;;;;;;0.70;0.30;;;31.50;56.00;;;-144.05;27.67;125687.94;6130971;23;20238;-89
2022/07/12 12:36:28;;;;;;;1.10;0.40;;;31.90;55.30;;;-144.05;27.19;125687.94;6133000;23;20010;-88
2022/07/12 12:39:00;;;;;;;1.48;0.70;;;32.30;54.60;;;-144.05;27.15;125687.94;6130497;23;20471;-90
2022/07/12 12:41:37;;;;;;;1.58;0.40;;;32.40;54.70;;;-144.05;27.08;125687.94;6130506;23;20012;-90
2022/07/12 12:44:07;;;;;;;0.68;0.40;;;32.40;54.30;;;-144.05;26.60;125687.94;6131062;23;20020;-88
2022/07/12 12:47:30;;;;;;;1.70;0.40;;;32.30;52.80;;;-144.05;27.63;125687.94;6132897;23;20073;-89
2022/07/12 12:49:52;;;;;;;1.00;0.50;;;32.50;55.70;;;-144.05;27.69;125687.94;6133694;23;20448;-88
2022/07/12 12:52:19;;;;;;;4.60;0.68;;;32.50;55.20;;;-144.05;27.77;125687.94;6107960;23;20018;-89
2022/07/12 12:54:45;;;;;;;1.83;0.60;;;32.30;55.70;;;-144.05;27.61;125687.94;6132016;23;20014;-89
2022/07/12 12:57:12;;;;;;;1.55;0.40;;;32.50;55.60;;;-144.05;27.16;125687.94;6106208;23;20014;-86
2022/07/12 12:59:38;;;;;;;1.48;0.50;;;32.30;54.00;;;-144.05;27.25;125687.94;6131371;23;20096;-89
2022/07/12 13:02:08;;;;;;;2.90;0.30;;;32.60;54.20;;;-144.05;26.70;125687.94;6130896;23;20009;-88
2022/07/12 13:04:37;;;;;;;0.90;0.60;;;32.60;53.40;;;-144.05;27.02;125687.94;6131530;23;20348;-88
2022/07/12 13:07:06;;;;;;;2.40;0.50;;;32.70;53.90;;;-144.05;26.74;125687.94;6131528;23;20012;-87
2022/07/12 13:09:32;;;;;;;1.42;0.38;;;32.50;53.30;;;-144.05;26.89;125687.94;6133145;23;20021;-88
2022/07/12 13:12:00;;;;;;;4.40;0.50;;;32.40;52.90;;;-144.05;26.29;125687.94;6131594;23;20017;-87
2022/07/12 13:14:27;;;;;;;2.13;0.50;;;32.50;51.90;;;-144.05;26.14;125687.94;6105560;23;20036;-87
2022/07/12 13:16:58;;;;;;;3.97;0.70;;;32.70;51.90;;;-144.05;26.25;125687.94;6106776;23;20014;-89
2022/07/12 13:19:24;;;;;;;0.75;0.32;;;32.80;51.90;;;-144.05;25.80;125687.94;6130944;23;20503;-89
2022/07/12 13:21:51;;;;;;;0.43;0.30;;;32.80;51.40;;;-144.05;26.06;125687.94;6132401;23;20029;-88
2022/07/12 13:24:18;;;;;;;2.45;0.60;;;32.60;50.90;;;-144.05;26.69;125687.94;6139312;23;20000;-86
2022/07/12 13:26:44;;;;;;;2.35;0.22;;;32.20;51.30;;;-144.05;27.53;125687.94;6126989;23;20010;-86
2022/07/12 13:29:10;;;;;;;1.90;0.60;;;31.70;52.60;;;-144.05;27.19;125687.94;6110317;23;20014;-91
2022/07/12 13:31:39;;;;;;;1.85;0.60;;;31.50;52.80;;;-144.05;27.78;125687.94;6131400;23;20010;-89
2022/07/12 13:34:05;;;;;;;2.35;0.40;;;31.50;54.50;;;-144.05;27.39;125687.94;6106008;23;20025;-88
2022/07/12 13:36:31;;;;;;;3.47;0.57;;;31.60;53.60;;;-144.05;27.08;125687.94;6134244;23;20010;-89
2022/07/12 13:40:10;;;;;;;1.60;0.40;;;31.70;52.90;;;-144.05;27.56;125687.94;6132432;23;20073;-88
2022/07/12 13:41:43;;;;;;;0.60;0.52;;;31.70;54.10;;;-144.05;27.03;125687.94;6132590;23;20049;-89
2022/07/12 13:44:09;;;;;;;3.00;0.60;;;31.60;52.90;;;-144.05;27.54;125687.94;6107702;23;20451;-87
2022/07/12 13:46:37;;;;;;;1.25;0.60;;;31.70;53.90;;;-144.05;27.52;125687.94;6108413;23;20014;-88
2022/07/12 13:49:05;;;;;;;1.50;0.32;;;32.00;54.60;;;-144.05;27.69;125687.94;6137640;23;20032;-84
2022/07/12 13:51:31;;;;;;;0.98;0.40;;;31.90;55.00;;;-144.05;27.47;125687.94;6112356;23;20006;-86
2022/07/12 13:53:57;;;;;;;1.05;0.50;;;31.80;53.70;;;-144.05;27.83;125687.94;6132063;23;20022;-89
2022/07/12 13:56:23;;;;;;;1.20;0.77;;;31.80;55.30;;;-144.05;28.37;125687.94;6131808;23;20010;-88
2022/07/12 13:58:48;;;;;;;0.70;0.43;;;31.80;55.70;;;-144.05;27.94;125687.94;6132364;23;20009;-89
2022/07/12 14:01:15;;;;;;;1.83;0.60;;;31.60;54.90;;;-144.05;28.22;125687.94;6132095;23;20432;-88
2022/07/12 14:03:41;;;;;;;0.98;0.52;;;31.60;55.30;;;-144.05;27.88;125687.94;6133286;23;20029;-91
2022/07/12 14:06:07;;;;;;;1.33;0.45;;;31.50;54.50;;;-144.05;28.33;125687.94;6134547;23;20495;-90
2022/07/12 14:08:33;;;;;;;0.60;0.60;;;31.30;55.00;;;-144.05;28.97;125687.94;6108375;23;20016;-88
2022/07/12 14:10:59;;;;;;;2.70;0.80;;;31.40;57.10;;;-144.05;28.09;125687.94;6128657;23;20069;-88
2022/07/12 14:13:25;;;;;;;0.90;0.65;;;31.40;55.30;;;-144.05;28.46;125687.94;6129123;23;20061;-88
2022/07/12 14:15:51;;;;;;;1.85;0.77;;;31.40;56.10;;;-144.05;28.29;125687.94;6132150;23;20423;-90
2022/07/12 14:18:17;;;;;;;1.50;0.63;;;31.40;55.30;;;-144.05;28.35;125687.94;6131486;23;20033;-86
2022/07/12 14:20:44;;;;;;;2.72;0.65;;;31.30;55.20;;;-144.05;27.79;125687.94;6106565;23;20452;-89
2022/07/12 14:23:13;;;;;;;1.00;0.50;;;31.40;55.10;;;-144.05;28.54;125687.94;6132467;23;20021;-88
2022/07/12 14:25:39;;;;;;;0.75;0.40;;;31.60;56.00;;;-144.05;27.83;125687.94;6131221;23;20463;-86
2022/07/12 14:28:05;;;;;;;1.42;0.77;;;31.80;55.60;;;-144.05;26.81;125687.94;6130492;23;20041;-88
2022/07/12 14:30:31;;;;;;;3.63;0.80;;;32.00;53.10;;;-144.05;27.60;125687.94;6130592;23;20010;-88
2022/07/12 14:32:57;;;;;;;0.88;0.70;;;32.10;54.20;;;-144.05;26.88;125687.94;6128968;23;20010;-89
2022/07/12 14:35:23;;;;;;;3.78;0.50;;;31.90;52.20;;;-144.05;27.29;125687.94;6104917;23;20089;-87
2022/07/12 14:37:49;;;;;;;1.85;0.88;;;31.90;53.60;;;-144.05;27.02;125687.94;6104889;23;20017;-88
2022/07/12 14:40:16;;;;;;;1.33;0.52;;;31.90;53.20;;;-144.05;26.61;125687.94;6133105;23;20088;-87
2022/07/12 14:42:44;;;;;;;1.60;0.60;;;31.70;51.40;;;-144.05;27.20;125687.94;6131124;23;20082;-87
2022/07/12 14:45:11;;;;;;;0.95;0.60;;;31.50;53.00;;;-144.05;27.20;125687.94;6132517;23;20010;-86
2022/07/12 14:47:37;;;;;;;0.90;0.60;;;31.60;53.10;;;-144.05;27.06;125687.94;6128372;23;20056;-87
2022/07/12 14:50:04;;;;;;;2.53;0.63;;;31.40;52.50;;;-144.05;26.64;125687.94;6105165;23;20025;-87
2022/07/12 14:52:32;;;;;;;3.65;0.82;;;31.60;51.90;;;-144.05;26.28;125687.94;6130813;23;20010;-88
2022/07/12 14:54:57;;;;;;;1.92;0.70;;;31.60;51.20;;;-144.05;26.47;125687.94;6105590;23;20010;-88
2022/07/12 14:57:24;;;;;;;0.50;0.50;;;31.30;50.90;;;-144.05;27.23;125687.94;6129434;23;20024;-85
2022/07/12 14:59:49;;;;;;;1.00;0.57;;;31.20;53.00;;;-144.05;27.44;125687.94;6105796;23;20018;-88
2022/07/12 15:02:17;;;;;;;0.88;0.63;;;31.10;53.30;;;-144.05;27.06;125687.94;6129102;23;20021;-87
2022/07/12 15:04:43;;;;;;;2.53;0.70;;;30.90;51.90;;;-144.05;27.63;125687.94;6130250;23;20108;-87
2022/07/12 15:07:09;;;;;;;0.95;0.52;;;30.60;52.60;;;-144.05;27.50;125687.94;6133224;23;20420;-88
2022/07/12 15:09:35;;;;;;;1.75;0.70;;;30.50;52.80;;;-144.05;27.44;125687.94;6135746;23;20006;-88
2022/07/12 15:12:01;;;;;;;1.23;0.50;;;30.50;52.70;;;-144.05;27.06;125687.94;6134553;23;20009;-88
2022/07/12 15:14:27;;;;;;;1.92;0.70;;;30.60;51.90;;;-144.05;27.13;125687.94;6107820;23;20013;-89
2022/07/12 15:16:53;;;;;;;4.22;0.70;;;30.50;52.40;;;-144.05;27.72;125687.94;6133348;23;20017;-89
2022/07/12 15:19:19;;;;;;;1.15;0.70;;;30.50;53.70;;;-144.05;27.37;125687.94;6124431;23;20026;-88
2022/07/12 15:21:45;;;;;;;1.80;0.65;;;30.40;53.00;;;-144.05;27.52;125687.94;6132010;23;20013;-86
2022/07/12 15:24:12;;;;;;;1.73;0.80;;;30.30;53.20;;;-144.05;27.26;125687.94;6135224;23;20077;-86
2022/07/12 15:26:38;;;;;;;1.25;0.80;;;30.20;52.20;;;-144.05;27.71;125687.94;6134560;23;20382;-85
2022/07/12 15:29:04;;;;;;;1.88;0.85;;;30.20;53.40;;;-144.05;28.14;125687.94;6134376;23;20006;-87
2022/07/12 15:31:32;;;;;;;2.88;0.70;;;30.00;54.20;;;-144.05;28.45;125687.94;6131772;23;20312;-89
2022/07/12 15:34:00;;;;;;;4.55;1.05;;;30.00;55.30;;;-144.05;28.26;125687.94;6104605;23;20317;-88
2022/07/12 15:36:26;;;;;;;2.90;1.00;;;29.80;54.80;;;-144.05;28.72;125687.94;6128542;23;20037;-87
2022/07/12 15:38:53;;;;;;;3.42;0.88;;;29.50;55.40;;;-144.05;29.60;125687.94;6128645;23;20009;-89
2022/07/12 15:41:19;;;;;;;4.07;1.17;;;29.30;57.20;;;-144.05;29.95;125687.94;6131431;23;20439;-87
2022/07/12 15:43:46;;;;;;;1.95;1.08;;;29.30;58.00;;;-144.05;30.14;125687.94;6131154;23;20017;-88
2022/07/12 15:46:12;;;;;;;3.30;1.13;;;29.20;58.40;;;-144.05;30.47;125687.94;6129862;23;20046;-88
2022/07/12 15:48:40;;;;;;;2.90;1.00;;;29.10;58.70;;;-144.05;30.50;125687.94;6132229;23;20002;-91
